Flugplatz Saulgau

Für EDTU sind keine METAR/TAF Berichte vorhanden.
Es werden die Flugwettermeldungen vom Flugplatz Laupheim Airport in 36 km Entfernung angezeigt.

Bericht für ETHL

vom 02.06. um 23:20 UTC

Wind 1 kt aus 200°

Sichtweite 10 km oder mehr

aufgelockert bewölkt in 25000 ft

Temperatur 12.0°C

Taupunkt 7.0°C

Luftfeuchtigkeit 71%

Luftdruck 1012 hPa

ETHL 022320Z 20001KT 9999 SCT250 12/07 Q1012 BLU+FCST CNL

Prognose für ETHL

vom 02.06. um 16:59 UTC

Am 02.06. zwischen 17:00 UTC und 02:00 UTC

Wind 5 kt aus 40°

Sichtweite 10 km oder mehr

keine signifikanten Wettererscheinungen

gering bewölkt in 6000 ft

TAF COR ETHL 021659Z 0217/0302 04005KT 9999 NSW FEW060
Impressum